createdAt,value
2018-09-08T00:04:38.350Z,4.10
2018-09-08T00:09:42.383Z,3.90
2018-09-08T00:14:45.444Z,4.30
2018-09-08T00:19:54.742Z,3.87
2018-09-08T00:25:04.117Z,3.70
2018-09-08T00:30:09.146Z,3.53
2018-09-08T00:35:12.942Z,3.50
2018-09-08T00:40:16.735Z,2.50
2018-09-08T00:45:20.765Z,2.40
2018-09-08T00:50:24.779Z,2.10
2018-09-08T00:55:28.847Z,2.27
2018-09-08T01:00:32.879Z,2.50
2018-09-08T01:05:36.927Z,2.50
2018-09-08T01:10:41.314Z,2.80
2018-09-08T01:15:45.319Z,2.80
2018-09-08T01:20:49.097Z,2.93
2018-09-08T01:25:53.434Z,2.87
2018-09-08T01:30:57.503Z,2.93
2018-09-08T01:36:01.531Z,3.10
2018-09-08T01:41:08.413Z,3.40
2018-09-08T01:46:12.435Z,3.20
2018-09-08T01:51:16.473Z,3.80
2018-09-08T01:56:20.515Z,3.60
2018-09-08T02:01:24.521Z,4.30
2018-09-08T02:06:28.289Z,3.60
2018-09-08T02:11:32.309Z,3.43
2018-09-08T02:16:36.097Z,3.60
2018-09-08T02:21:40.099Z,3.73
2018-09-08T02:26:43.886Z,3.57
2018-09-08T02:31:47.664Z,3.50
2018-09-08T02:36:52.058Z,3.23
2018-09-08T02:41:55.856Z,3.30
2018-09-08T02:46:59.852Z,3.70
2018-09-08T02:52:02.425Z,3.50
2018-09-08T02:57:04.966Z,3.77
2018-09-08T03:02:07.563Z,3.60
2018-09-08T03:07:12.945Z,3.70
2018-09-08T03:12:15.572Z,3.50
2018-09-08T03:17:18.164Z,3.43
2018-09-08T03:22:21.137Z,3.47
2018-09-08T03:27:23.993Z,3.43
2018-09-08T03:32:26.570Z,3.13
2018-09-08T03:37:29.191Z,3.50
2018-09-08T03:42:31.774Z,3.00
2018-09-08T03:47:34.405Z,3.70
2018-09-08T03:52:37.014Z,3.70
2018-09-08T03:57:39.858Z,4.00
2018-09-08T04:02:43.934Z,3.80
2018-09-08T04:07:47.994Z,3.57
2018-09-08T04:12:52.671Z,3.60
2018-09-08T04:17:56.760Z,4.00
2018-09-08T04:23:00.566Z,3.80
2018-09-08T04:28:04.631Z,3.43
2018-09-08T04:33:08.467Z,3.50
2018-09-08T04:38:12.512Z,3.50
2018-09-08T04:43:16.618Z,3.45
2018-09-08T04:48:20.709Z,3.47
2018-09-08T04:53:24.769Z,3.90
2018-09-08T04:58:28.814Z,3.67
2018-09-08T05:03:32.658Z,3.70
2018-09-08T05:08:36.507Z,3.77
2018-09-08T05:13:40.307Z,3.77
2018-09-08T05:18:44.190Z,3.87
2018-09-08T05:23:48.271Z,3.50
2018-09-08T05:28:52.117Z,3.80
2018-09-08T05:33:56.159Z,4.10
2018-09-08T05:39:00.937Z,4.10
2018-09-08T05:44:05.053Z,4.53
2018-09-08T05:49:09.015Z,4.23
2018-09-08T05:54:13.089Z,3.70
2018-09-08T05:59:17.200Z,3.43
2018-09-08T06:04:21.316Z,3.17
2018-09-08T06:09:25.411Z,3.10
2018-09-08T06:14:30.590Z,2.80
2018-09-08T06:19:34.731Z,2.80
2018-09-08T06:24:38.596Z,2.70
2018-09-08T06:29:42.666Z,2.43
2018-09-08T06:34:46.898Z,2.37
2018-09-08T06:39:57.527Z,2.70
2018-09-08T06:45:01.675Z,2.60
2018-09-08T06:50:05.759Z,2.33
2018-09-08T06:55:09.828Z,2.20
2018-09-08T07:00:13.922Z,2.50
2018-09-08T07:05:17.770Z,1.80
2018-09-08T07:10:21.814Z,1.77
2018-09-08T07:15:25.640Z,2.00
2018-09-08T07:20:29.693Z,1.70
2018-09-08T07:25:33.650Z,1.57
2018-09-08T07:30:39.779Z,1.80
2018-09-08T07:35:43.820Z,1.97
2018-09-08T07:40:47.629Z,1.90
2018-09-08T07:45:51.819Z,2.08
2018-09-08T07:50:55.645Z,2.00
2018-09-08T07:56:06.163Z,1.73
2018-09-08T08:01:10.204Z,1.90
2018-09-08T08:06:14.306Z,1.70
2018-09-08T08:11:18.117Z,1.50
2018-09-08T08:16:22.166Z,2.20
2018-09-08T08:21:26.262Z,1.90
2018-09-08T08:26:30.124Z,1.77
2018-09-08T08:31:34.232Z,1.87
2018-09-08T08:36:38.066Z,1.60
2018-09-08T08:41:42.112Z,1.80
2018-09-08T08:46:46.160Z,1.50
2018-09-08T08:52:07.487Z,1.80
2018-09-08T08:57:11.591Z,2.03
2018-09-08T09:02:15.671Z,1.37
2018-09-08T09:07:19.764Z,1.53
2018-09-08T09:12:23.602Z,1.90
2018-09-08T09:17:27.723Z,1.80
2018-09-08T09:22:42.899Z,1.67
2018-09-08T09:27:48.578Z,1.77
2018-09-08T09:32:52.680Z,1.80
2018-09-08T09:37:56.756Z,1.57
2018-09-08T09:43:00.927Z,1.60
2018-09-08T09:48:05.085Z,1.50
2018-09-08T09:53:08.953Z,1.80
2018-09-08T09:58:14.220Z,1.57
2018-09-08T10:03:18.336Z,1.57
2018-09-08T10:08:22.503Z,1.80
2018-09-08T10:13:26.586Z,1.50
2018-09-08T10:18:30.686Z,1.73
2018-09-08T10:23:34.770Z,1.73
2018-09-08T10:28:38.880Z,1.70
2018-09-08T10:33:43.026Z,1.80
2018-09-08T10:38:46.997Z,1.60
2018-09-08T10:43:50.873Z,1.80
2018-09-08T10:48:54.988Z,1.90
2018-09-08T10:53:59.114Z,1.80
2018-09-08T10:59:03.254Z,1.40
2018-09-08T11:04:07.699Z,1.60
2018-09-08T11:09:11.562Z,1.90
2018-09-08T11:14:15.685Z,2.03
2018-09-08T11:19:19.491Z,1.47
2018-09-08T11:24:23.563Z,1.90
2018-09-08T11:29:27.680Z,1.57
2018-09-08T11:34:32.068Z,1.90
2018-09-08T11:39:35.916Z,1.70
2018-09-08T11:44:39.993Z,1.70
2018-09-08T11:49:43.860Z,1.62
2018-09-08T11:54:47.632Z,1.90
2018-09-08T11:59:51.775Z,2.00
2018-09-08T12:04:55.929Z,1.90
2018-09-08T12:10:00.053Z,2.10
2018-09-08T12:15:03.905Z,2.13
2018-09-08T12:20:07.773Z,1.70
2018-09-08T12:25:11.590Z,1.77
2018-09-08T12:30:15.638Z,1.37
2018-09-08T12:35:19.696Z,1.80
2018-09-08T12:40:23.520Z,1.77
2018-09-08T12:45:27.631Z,2.13
2018-09-08T12:50:31.744Z,1.70
2018-09-08T12:55:35.913Z,1.60
2018-09-08T13:00:39.955Z,1.80
2018-09-08T13:05:44.078Z,1.50
2018-09-08T13:10:48.120Z,1.77
2018-09-08T13:15:52.224Z,1.70
2018-09-08T13:20:56.399Z,1.40
2018-09-08T13:26:00.509Z,1.63
2018-09-08T13:31:04.326Z,2.00
2018-09-08T13:36:09.005Z,1.90
2018-09-08T13:41:12.868Z,1.50
2018-09-08T13:46:16.716Z,1.93
2018-09-08T13:51:20.802Z,1.40
2018-09-08T13:56:24.901Z,1.90
2018-09-08T14:01:28.971Z,1.63
2018-09-08T14:06:33.049Z,1.40
2018-09-08T14:11:37.194Z,1.60
2018-09-08T14:16:41.267Z,1.80
2018-09-08T14:21:45.386Z,1.60
2018-09-08T14:26:49.231Z,1.90
2018-09-08T14:31:53.351Z,1.70
2018-09-08T14:36:57.450Z,1.73
2018-09-08T14:42:01.711Z,1.80
2018-09-08T14:47:05.894Z,1.60
2018-09-08T14:52:10.635Z,1.70
2018-09-08T14:57:14.593Z,1.53
2018-09-08T15:02:18.675Z,1.60
2018-09-08T15:07:22.817Z,1.80
2018-09-08T15:12:26.977Z,1.53
2018-09-08T15:17:31.125Z,1.60
2018-09-08T15:22:35.207Z,1.87
2018-09-08T15:27:39.049Z,1.70
2018-09-08T15:32:43.014Z,1.53
2018-09-08T15:37:47.429Z,1.70
2018-09-08T15:42:51.562Z,1.70
2018-09-08T15:47:55.662Z,1.60
2018-09-08T15:52:59.511Z,1.70
2018-09-08T15:58:03.345Z,1.70
2018-09-08T16:03:07.572Z,1.63
2018-09-08T16:08:11.375Z,1.80
2018-09-08T16:13:15.505Z,1.50
2018-09-08T16:18:19.358Z,1.60
2018-09-08T16:23:23.446Z,1.63
2018-09-08T16:28:27.274Z,1.80
2018-09-08T16:33:31.343Z,1.90
2018-09-08T16:38:36.275Z,1.70
2018-09-08T16:43:40.301Z,1.95
2018-09-08T16:48:44.379Z,1.50
2018-09-08T16:53:48.460Z,1.93
2018-09-08T16:58:52.640Z,1.70
2018-09-08T17:03:57.099Z,1.90
2018-09-08T17:09:00.950Z,1.63
2018-09-08T17:14:04.818Z,1.77
2018-09-08T17:19:08.711Z,2.07
2018-09-08T17:24:12.818Z,1.57
2018-09-08T17:29:16.967Z,1.83
2018-09-08T17:34:20.817Z,2.00
2018-09-08T17:39:24.663Z,1.80
2018-09-08T17:44:28.811Z,1.70
2018-09-08T17:49:32.911Z,1.90
2018-09-08T17:54:37.024Z,1.90
2018-09-08T17:59:40.886Z,1.50
2018-09-08T18:04:45.012Z,2.10
2018-09-08T18:09:48.871Z,2.20
2018-09-08T18:14:52.982Z,1.77
2018-09-08T18:19:57.080Z,2.07
2018-09-08T18:25:07.498Z,1.70
2018-09-08T18:30:11.344Z,5.37
2018-09-08T18:35:21.186Z,4.73
2018-09-08T18:40:25.286Z,2.10
2018-09-08T18:45:29.137Z,2.80
2018-09-08T18:50:33.216Z,2.10
2018-09-08T18:55:37.460Z,2.30
2018-09-08T19:00:41.500Z,2.30
2018-09-08T19:05:45.619Z,2.27
2018-09-08T19:10:49.662Z,2.20
2018-09-08T19:15:53.703Z,2.60
2018-09-08T19:20:57.514Z,2.37
2018-09-08T19:26:01.655Z,2.87
2018-09-08T19:31:05.599Z,2.30
2018-09-08T19:36:09.641Z,2.20
2018-09-08T19:41:13.485Z,2.40
2018-09-08T19:46:22.911Z,2.40
2018-09-08T19:51:26.750Z,2.37
2018-09-08T19:56:36.200Z,2.23
2018-09-08T20:01:40.252Z,2.67
2018-09-08T20:06:44.302Z,2.70
2018-09-08T20:11:48.131Z,2.40
2018-09-08T20:16:52.283Z,2.73
2018-09-08T20:21:56.332Z,2.63
2018-09-08T20:27:00.595Z,2.90
2018-09-08T20:32:04.414Z,2.58
2018-09-08T20:37:08.231Z,3.00
2018-09-08T20:42:12.287Z,2.60
2018-09-08T20:47:16.495Z,2.70
2018-09-08T20:52:20.578Z,2.80
2018-09-08T20:57:24.616Z,2.90
2018-09-08T21:02:28.471Z,3.00
2018-09-08T21:07:32.544Z,3.00
2018-09-08T21:12:36.564Z,2.90
2018-09-08T21:17:40.372Z,3.05
2018-09-08T21:22:44.465Z,3.05
2018-09-08T21:27:48.301Z,3.20
2018-09-08T21:32:52.384Z,3.03
2018-09-08T21:37:56.197Z,3.10
2018-09-08T21:43:00.045Z,3.07
2018-09-08T21:48:04.161Z,2.87
2018-09-08T21:53:08.214Z,3.12
2018-09-08T21:58:12.298Z,3.50
2018-09-08T22:03:16.391Z,3.40
2018-09-08T22:08:20.830Z,3.07
2018-09-08T22:13:24.891Z,2.87
2018-09-08T22:18:29.327Z,3.10
2018-09-08T22:23:33.387Z,3.03
2018-09-08T22:28:37.782Z,2.90
2018-09-08T22:33:41.850Z,2.90
2018-09-08T22:38:45.774Z,3.40
2018-09-08T22:43:49.582Z,3.20
2018-09-08T22:48:53.455Z,3.30
2018-09-08T22:53:57.512Z,3.40
2018-09-08T22:59:01.351Z,3.10
2018-09-08T23:04:05.296Z,2.93
2018-09-08T23:09:09.126Z,2.70
2018-09-08T23:14:13.201Z,3.10
2018-09-08T23:19:17.025Z,2.80
2018-09-08T23:24:20.845Z,2.90
2018-09-08T23:29:24.993Z,2.97
2018-09-08T23:34:29.111Z,2.97
2018-09-08T23:39:32.939Z,3.23
2018-09-08T23:44:37.056Z,3.30
2018-09-08T23:49:41.125Z,3.20
2018-09-08T23:54:45.220Z,3.20
2018-09-08T23:59:49.076Z,3.10
